Time;durP1;ratioP1;P1;durP2;ratioP2;P2;SDS_P1;SDS_P2;PMS_P1;PMS_P2;Temp;Humidity;BMP_temperature;BMP_pressure;BME280_temperature;BME280_humidity;BME280_pressure;Samples;Min_cycle;Max_cycle;Signal;HPM_P1;HPM_P2
2021/06/08 00:28:45;;;;;;;16.70;9.07;;;;;;;;;;5663113;23;20062;-84
2021/06/08 03:11:21;;;;;;;10.70;5.20;;;;;;;;;;6114566;23;20119;31
2021/06/08 04:19:15;;;;;;;8.82;4.38;;;;;;;;;;5435978;23;20042;-82
2021/06/08 07:00:51;;;;;;;6.63;3.45;;;;;;;;;;5895954;23;20140;-82
2021/06/08 07:03:23;;;;;;;9.00;3.47;;;;;;;;;;5014409;28;20051;-82
2021/06/08 07:05:48;;;;;;;6.43;3.58;;;;;;;;;;5010858;28;20085;-80
2021/06/08 07:13:16;;;;;;;7.45;3.70;;;;;;;;;;4990226;28;20050;-81
2021/06/08 07:15:43;;;;;;;7.65;3.85;;;;;;;;;;4979391;28;20066;-80
2021/06/08 07:18:09;;;;;;;6.70;3.28;;;;;;;;;;4973118;28;20033;-81
2021/06/08 07:20:36;;;;;;;8.05;3.60;;;;;;;;;;4974760;28;20031;-80
2021/06/08 07:23:02;;;;;;;6.40;3.60;;;;;;;;;;4949242;29;20043;-80
2021/06/08 07:25:27;;;;;;;7.85;3.63;;;;;;;;;;4970623;29;20036;-80
2021/06/08 07:27:54;;;;;;;6.65;4.05;;;;;;;;;;4976488;28;20019;-81
2021/06/08 07:30:20;;;;;;;7.10;3.95;;;;;;;;;;4976176;28;20026;-80
2021/06/08 07:32:51;;;;;;;8.05;3.97;;;;;;;;;;4969636;28;20023;-81
2021/06/08 07:35:32;;;;;;;8.23;4.00;;;;;;;;;;4970486;28;20022;-80
2021/06/08 07:37:59;;;;;;;7.93;3.80;;;;;;;;;;4983509;28;20026;-81
2021/06/08 07:40:26;;;;;;;10.52;3.72;;;;;;;;;;4987874;28;20022;-81
2021/06/08 07:42:53;;;;;;;8.35;4.20;;;;;;;;;;4978427;28;20102;-80
2021/06/08 07:45:31;;;;;;;9.30;4.03;;;;;;;;;;4975612;28;20049;-81
2021/06/08 07:47:57;;;;;;;8.63;3.85;;;;;;;;;;4966303;29;20023;-81
2021/06/08 07:50:25;;;;;;;6.03;3.55;;;;;;;;;;4971867;28;20043;-81
2021/06/08 07:52:51;;;;;;;7.55;3.33;;;;;;;;;;4970146;28;20397;-81
2021/06/08 07:55:17;;;;;;;8.02;3.53;;;;;;;;;;4976955;28;20058;-80
2021/06/08 07:57:45;;;;;;;6.07;3.13;;;;;;;;;;4992793;28;20539;-80
2021/06/08 08:00:10;;;;;;;7.70;3.53;;;;;;;;;;4992506;28;20037;-80
2021/06/08 08:02:36;;;;;;;8.43;3.75;;;;;;;;;;4989234;28;20023;-80
2021/06/08 08:05:08;;;;;;;7.00;3.67;;;;;;;;;;4992042;28;20027;-80
2021/06/08 08:07:33;;;;;;;6.82;3.60;;;;;;;;;;4980649;28;20117;-80
2021/06/08 08:10:00;;;;;;;5.97;3.38;;;;;;;;;;5073423;23;20055;-80
2021/06/08 08:12:25;;;;;;;7.78;3.15;;;;;;;;;;4979569;28;20011;-81
2021/06/08 08:14:54;;;;;;;4.05;2.80;;;;;;;;;;4996513;28;20074;-81
2021/06/08 08:17:23;;;;;;;6.55;3.30;;;;;;;;;;4978527;29;20457;-81
2021/06/08 08:19:48;;;;;;;6.97;3.28;;;;;;;;;;4977157;28;20019;-80
2021/06/08 08:22:14;;;;;;;5.90;3.30;;;;;;;;;;4962408;28;20082;-82
2021/06/08 08:24:39;;;;;;;7.93;3.10;;;;;;;;;;4983101;28;20027;-81
2021/06/08 08:27:06;;;;;;;6.00;3.42;;;;;;;;;;5003650;28;20022;-81
2021/06/08 08:29:32;;;;;;;7.03;3.40;;;;;;;;;;4982166;28;20087;-80
2021/06/08 08:31:58;;;;;;;7.18;3.50;;;;;;;;;;4995154;28;20038;-82
2021/06/08 08:34:23;;;;;;;5.95;3.17;;;;;;;;;;4983062;28;20015;-83
2021/06/08 08:44:34;;;;;;;5.82;3.55;;;;;;;;;;5254071;23;20042;-84
2021/06/08 08:46:59;;;;;;;7.22;3.65;;;;;;;;;;4984149;28;20011;-81
2021/06/08 08:49:28;;;;;;;5.82;3.42;;;;;;;;;;4983211;28;20023;-82
2021/06/08 08:51:53;;;;;;;9.13;3.53;;;;;;;;;;5000258;28;20011;-82
2021/06/08 08:54:20;;;;;;;5.05;3.22;;;;;;;;;;5000324;28;20049;-85
2021/06/08 09:43:18;;;;;;;8.40;4.10;;;;;;;;;;6070094;23;20013;-80
2021/06/08 12:04:58;;;;;;;10.70;4.90;;;;;;;;;;6088833;23;20022;31
2021/06/08 13:06:58;;;;;;;15.13;4.47;;;;;;;;;;1780418;23;20123;-80
2021/06/08 13:09:23;;;;;;;12.48;4.15;;;;;;;;;;4983251;28;20086;-82
2021/06/08 13:11:49;;;;;;;11.85;4.43;;;;;;;;;;4980421;28;20023;-82
2021/06/08 13:14:18;;;;;;;12.95;4.25;;;;;;;;;;4979876;28;20023;-83
2021/06/08 13:16:44;;;;;;;12.05;3.88;;;;;;;;;;4998862;28;20103;-82
2021/06/08 13:19:31;;;;;;;13.45;4.63;;;;;;;;;;5143465;23;20035;-82
2021/06/08 13:22:11;;;;;;;9.65;4.30;;;;;;;;;;4983454;28;20007;-82
2021/06/08 13:24:41;;;;;;;10.55;4.25;;;;;;;;;;4984180;28;20026;-82
2021/06/08 13:27:10;;;;;;;10.38;4.13;;;;;;;;;;5000541;28;19995;-82
2021/06/08 13:29:36;;;;;;;11.00;4.00;;;;;;;;;;5000584;28;20026;-82
2021/06/08 13:32:01;;;;;;;13.38;4.00;;;;;;;;;;4999939;28;20015;-82
2021/06/08 13:34:28;;;;;;;14.02;4.75;;;;;;;;;;4999295;28;20083;-82
2021/06/08 13:37:01;;;;;;;16.55;4.43;;;;;;;;;;4999516;28;20031;-82
2021/06/08 13:42:11;;;;;;;13.68;4.18;;;;;;;;;;5770123;23;20067;-82
2021/06/08 13:44:38;;;;;;;24.25;4.85;;;;;;;;;;5017707;28;20020;-81
2021/06/08 13:47:03;;;;;;;13.13;4.07;;;;;;;;;;5017689;28;20034;-82
2021/06/08 13:49:42;;;;;;;15.75;4.35;;;;;;;;;;5017166;28;20003;-82
2021/06/08 13:52:07;;;;;;;11.57;4.47;;;;;;;;;;5019169;28;20074;-84
2021/06/08 13:54:33;;;;;;;13.00;4.30;;;;;;;;;;5002809;28;20015;-83
2021/06/08 13:57:20;;;;;;;12.98;4.82;;;;;;;;;;5001275;28;20026;-83
2021/06/08 14:02:49;;;;;;;11.45;4.15;;;;;;;;;;5015655;28;20029;-83
2021/06/08 14:05:22;;;;;;;13.18;4.72;;;;;;;;;;5000847;28;20030;-82
2021/06/08 14:10:23;;;;;;;15.43;5.03;;;;;;;;;;5448040;23;19922;-84
2021/06/08 14:15:24;;;;;;;14.38;4.47;;;;;;;;;;5805597;23;20099;-82
2021/06/08 14:17:50;;;;;;;13.82;4.30;;;;;;;;;;4982488;28;20114;-82
2021/06/08 14:20:15;;;;;;;13.02;4.65;;;;;;;;;;4980835;28;20003;-82
2021/06/08 14:22:41;;;;;;;14.10;4.30;;;;;;;;;;4963110;29;20043;-82
2021/06/08 14:25:07;;;;;;;17.05;4.35;;;;;;;;;;4976983;28;20032;-81
2021/06/08 14:27:35;;;;;;;10.10;3.50;;;;;;;;;;5000540;28;20023;-81
2021/06/08 14:30:03;;;;;;;12.95;4.15;;;;;;;;;;4979546;28;20051;-81
2021/06/08 14:32:28;;;;;;;12.15;3.97;;;;;;;;;;4977105;28;20022;-80
2021/06/08 14:34:58;;;;;;;10.63;3.42;;;;;;;;;;4998757;28;20062;-81
2021/06/08 14:37:23;;;;;;;9.27;3.58;;;;;;;;;;4979060;28;20031;-81
2021/06/08 14:39:49;;;;;;;12.18;3.58;;;;;;;;;;4994593;28;20042;-81
2021/06/08 14:42:14;;;;;;;10.27;3.80;;;;;;;;;;4996929;28;20026;-83
2021/06/08 14:44:40;;;;;;;11.05;3.72;;;;;;;;;;4978385;28;20165;-82
2021/06/08 14:49:40;;;;;;;10.77;4.30;;;;;;;;;;5721999;23;20058;-81
2021/06/08 15:05:26;;;;;;;10.70;3.53;;;;;;;;;;4958553;28;20095;-86
2021/06/08 15:07:51;;;;;;;11.40;3.58;;;;;;;;;;4959881;28;20341;-86
2021/06/08 15:23:13;;;;;;;11.68;3.95;;;;;;;;;;5614594;23;20042;-79
2021/06/08 15:25:38;;;;;;;10.80;3.67;;;;;;;;;;5020126;28;20016;-79
2021/06/08 15:28:04;;;;;;;13.20;4.05;;;;;;;;;;5019837;28;20014;-81
2021/06/08 15:43:17;;;;;;;11.85;3.40;;;;;;;;;;5616268;23;20042;-85
2021/06/08 15:45:42;;;;;;;10.57;3.00;;;;;;;;;;5018057;28;20003;-86
2021/06/08 15:48:08;;;;;;;9.27;3.30;;;;;;;;;;5338385;23;20031;-87
2021/06/08 16:21:34;;;;;;;8.88;2.45;;;;;;;;;;4973487;23;20103;-82
2021/06/08 16:23:59;;;;;;;12.55;3.22;;;;;;;;;;4964741;28;20035;-84
2021/06/08 16:26:25;;;;;;;7.57;2.47;;;;;;;;;;5100094;23;20046;-79
2021/06/08 16:28:50;;;;;;;11.10;2.90;;;;;;;;;;4989628;28;20011;-81
2021/06/08 16:31:19;;;;;;;7.20;2.20;;;;;;;;;;4996193;28;20440;-81
2021/06/08 16:33:44;;;;;;;8.60;2.17;;;;;;;;;;4987092;28;20080;-81
2021/06/08 16:36:10;;;;;;;8.40;2.03;;;;;;;;;;4989281;28;20042;-81
2021/06/08 16:38:38;;;;;;;8.70;2.65;;;;;;;;;;4985369;28;20027;-81
2021/06/08 16:41:04;;;;;;;11.95;2.20;;;;;;;;;;4973431;28;20019;-81
2021/06/08 16:43:29;;;;;;;8.40;1.80;;;;;;;;;;4971139;28;20098;-81
2021/06/08 16:45:55;;;;;;;6.63;2.00;;;;;;;;;;4984404;28;20015;-80
2021/06/08 16:48:21;;;;;;;7.85;2.00;;;;;;;;;;4986445;28;20083;-81
2021/06/08 16:53:27;;;;;;;6.03;2.10;;;;;;;;;;4971961;28;20098;-81
2021/06/08 16:55:52;;;;;;;8.35;2.30;;;;;;;;;;4985564;28;20066;-80
2021/06/08 16:58:19;;;;;;;7.53;1.67;;;;;;;;;;4979385;28;20467;-80
2021/06/08 17:00:45;;;;;;;7.95;2.13;;;;;;;;;;4976666;28;20022;-80
2021/06/08 17:03:11;;;;;;;8.63;2.10;;;;;;;;;;4961287;28;20033;-79
2021/06/08 17:05:36;;;;;;;7.25;1.95;;;;;;;;;;4963432;28;20465;-79
2021/06/08 17:08:03;;;;;;;8.60;2.25;;;;;;;;;;4942355;28;20516;-79
2021/06/08 17:10:29;;;;;;;7.97;2.38;;;;;;;;;;4976221;28;20011;-80
2021/06/08 17:12:54;;;;;;;5.20;1.73;;;;;;;;;;4972496;28;20042;-80
2021/06/08 17:15:20;;;;;;;8.65;2.30;;;;;;;;;;4942903;28;20420;-79
2021/06/08 17:17:45;;;;;;;9.40;2.65;;;;;;;;;;4980849;28;20924;-80
2021/06/08 17:20:11;;;;;;;8.93;2.30;;;;;;;;;;4977175;28;20027;-80
2021/06/08 17:22:37;;;;;;;10.30;2.42;;;;;;;;;;4987427;28;20129;-80
2021/06/08 17:25:03;;;;;;;7.50;2.22;;;;;;;;;;4963673;28;20134;-80
2021/06/08 17:27:28;;;;;;;12.27;3.35;;;;;;;;;;4964372;28;20025;-79
2021/06/08 17:29:53;;;;;;;8.65;2.45;;;;;;;;;;4947120;28;20030;-79
2021/06/08 17:32:19;;;;;;;12.15;3.13;;;;;;;;;;4946221;28;20646;-78
2021/06/08 17:34:44;;;;;;;9.23;2.38;;;;;;;;;;4942814;28;20019;-80
2021/06/08 17:37:10;;;;;;;10.55;3.42;;;;;;;;;;4962605;28;20111;-79
2021/06/08 17:39:35;;;;;;;9.20;2.92;;;;;;;;;;4969085;28;20032;-80
2021/06/08 17:42:01;;;;;;;7.72;2.75;;;;;;;;;;4961427;28;20022;-80
2021/06/08 17:44:27;;;;;;;11.90;3.00;;;;;;;;;;4962999;28;20118;-80
2021/06/08 17:46:52;;;;;;;9.55;2.80;;;;;;;;;;4967441;28;20022;-81
2021/06/08 17:49:17;;;;;;;12.80;3.00;;;;;;;;;;4970484;28;20026;-83
2021/06/08 17:51:42;;;;;;;8.52;2.60;;;;;;;;;;4961970;28;20066;-81
2021/06/08 17:54:08;;;;;;;18.25;12.32;;;;;;;;;;4952529;28;20029;-80
2021/06/08 17:56:34;;;;;;;18.50;14.38;;;;;;;;;;4962900;28;20046;-79
2021/06/08 17:59:00;;;;;;;11.27;5.28;;;;;;;;;;4982421;28;20456;-80
2021/06/08 18:01:25;;;;;;;11.82;4.75;;;;;;;;;;4967007;28;20110;-80
2021/06/08 18:03:50;;;;;;;9.65;3.20;;;;;;;;;;4954209;28;20027;-81
2021/06/08 18:06:16;;;;;;;10.32;2.65;;;;;;;;;;4991376;28;20469;-80
2021/06/08 18:08:41;;;;;;;6.90;2.28;;;;;;;;;;4987756;28;20030;-81
2021/06/08 18:11:06;;;;;;;9.23;2.60;;;;;;;;;;4972720;28;20487;-82
2021/06/08 18:13:31;;;;;;;8.38;2.38;;;;;;;;;;4977571;28;20334;-81
2021/06/08 18:15:57;;;;;;;7.57;2.60;;;;;;;;;;4969683;28;20023;-81
2021/06/08 18:18:37;;;;;;;9.65;2.50;;;;;;;;;;4966901;28;20041;-80
2021/06/08 18:21:03;;;;;;;9.82;2.65;;;;;;;;;;4967256;28;20050;-80
2021/06/08 18:23:30;;;;;;;8.80;2.58;;;;;;;;;;4968128;28;20027;-82
2021/06/08 18:25:55;;;;;;;8.52;2.53;;;;;;;;;;4968440;28;20058;-81
2021/06/08 18:28:22;;;;;;;8.38;2.20;;;;;;;;;;4981740;28;20046;-81
2021/06/08 18:30:47;;;;;;;9.15;2.42;;;;;;;;;;4973248;28;20491;-81
2021/06/08 18:33:12;;;;;;;6.97;2.22;;;;;;;;;;4970120;28;20061;-80
2021/06/08 18:35:38;;;;;;;9.38;2.20;;;;;;;;;;4980272;28;20062;-81
2021/06/08 18:38:03;;;;;;;11.98;2.33;;;;;;;;;;4982505;28;20027;-80
2021/06/08 18:40:29;;;;;;;8.45;2.38;;;;;;;;;;4985836;28;20026;-81
2021/06/08 18:42:55;;;;;;;12.35;2.50;;;;;;;;;;4985623;28;20034;-82
2021/06/08 18:45:21;;;;;;;10.65;2.92;;;;;;;;;;4972212;28;20022;-81
2021/06/08 18:47:46;;;;;;;10.13;2.35;;;;;;;;;;4987218;28;20011;-81
2021/06/08 18:50:11;;;;;;;11.80;2.42;;;;;;;;;;4965020;28;20412;-80
2021/06/08 18:52:37;;;;;;;12.45;2.42;;;;;;;;;;4973544;28;20058;-81
2021/06/08 18:55:02;;;;;;;7.68;2.20;;;;;;;;;;4987238;28;20037;-81
2021/06/08 18:57:28;;;;;;;9.48;2.67;;;;;;;;;;4985550;28;20023;-80
2021/06/08 18:59:53;;;;;;;9.82;2.00;;;;;;;;;;4986914;28;20090;-80
2021/06/08 19:02:18;;;;;;;7.07;2.10;;;;;;;;;;4991793;28;20057;-80
2021/06/08 19:04:44;;;;;;;6.95;2.13;;;;;;;;;;4961112;28;20023;-81
2021/06/08 19:07:11;;;;;;;12.88;2.10;;;;;;;;;;4971679;28;20038;-82
2021/06/08 19:09:36;;;;;;;7.45;2.05;;;;;;;;;;4987810;28;20038;-81
2021/06/08 19:12:01;;;;;;;8.57;2.42;;;;;;;;;;4973944;28;20030;-81
2021/06/08 19:14:28;;;;;;;10.48;2.72;;;;;;;;;;4986734;28;20094;-81
2021/06/08 19:16:54;;;;;;;7.78;2.10;;;;;;;;;;4976428;28;20043;-81
2021/06/08 19:19:19;;;;;;;9.82;2.30;;;;;;;;;;4991849;28;20035;-82
2021/06/08 19:21:44;;;;;;;12.70;2.30;;;;;;;;;;4957592;28;20061;-81
2021/06/08 19:24:10;;;;;;;8.15;2.47;;;;;;;;;;4972414;28;20026;-80
2021/06/08 19:26:39;;;;;;;7.75;2.50;;;;;;;;;;4988461;28;20043;-80
2021/06/08 19:29:04;;;;;;;6.95;2.08;;;;;;;;;;4968831;28;20019;-80
2021/06/08 19:31:31;;;;;;;6.18;2.20;;;;;;;;;;4972311;28;20047;-79
2021/06/08 19:33:58;;;;;;;10.43;2.30;;;;;;;;;;4953755;28;20094;-81
2021/06/08 19:36:24;;;;;;;7.10;2.30;;;;;;;;;;4964421;28;20501;-81
2021/06/08 19:38:49;;;;;;;7.47;2.20;;;;;;;;;;4952305;28;20026;-79
2021/06/08 19:41:14;;;;;;;9.00;2.53;;;;;;;;;;4969650;28;20022;-81
2021/06/08 19:43:41;;;;;;;5.13;2.20;;;;;;;;;;4967557;28;20066;-79
2021/06/08 19:46:06;;;;;;;9.00;2.33;;;;;;;;;;4954051;28;20028;-80
2021/06/08 19:48:31;;;;;;;6.03;2.58;;;;;;;;;;4971680;28;20098;-79
2021/06/08 19:50:57;;;;;;;6.25;2.05;;;;;;;;;;4989412;28;20086;-81
2021/06/08 19:53:23;;;;;;;10.98;2.33;;;;;;;;;;4972433;28;20034;-80
2021/06/08 19:55:49;;;;;;;4.07;2.25;;;;;;;;;;5089445;23;20055;-81
2021/06/08 19:58:14;;;;;;;5.28;2.30;;;;;;;;;;4954328;28;20133;-80
2021/06/08 20:00:39;;;;;;;6.38;2.20;;;;;;;;;;4968997;28;20034;-81
2021/06/08 20:03:05;;;;;;;7.30;2.15;;;;;;;;;;4967832;28;20027;-80
2021/06/08 20:05:31;;;;;;;6.82;2.35;;;;;;;;;;4961201;28;20019;-80
2021/06/08 20:07:57;;;;;;;6.13;2.60;;;;;;;;;;4981852;28;20126;-80
2021/06/08 20:10:22;;;;;;;6.50;2.50;;;;;;;;;;4985300;28;20033;-80
2021/06/08 20:12:48;;;;;;;5.53;2.63;;;;;;;;;;4978470;28;20484;-80
2021/06/08 20:15:14;;;;;;;7.82;3.00;;;;;;;;;;4975876;28;20026;-80
2021/06/08 20:17:41;;;;;;;7.80;2.80;;;;;;;;;;4966809;28;20015;-82
2021/06/08 20:20:07;;;;;;;7.78;2.78;;;;;;;;;;4967846;28;20448;-79
2021/06/08 20:22:34;;;;;;;6.18;2.60;;;;;;;;;;4972926;28;20037;-80
2021/06/08 20:25:00;;;;;;;6.78;2.50;;;;;;;;;;4958259;28;20019;-79
2021/06/08 20:27:25;;;;;;;6.80;2.92;;;;;;;;;;4954140;28;20106;-79
2021/06/08 20:29:50;;;;;;;6.70;2.50;;;;;;;;;;4953589;28;20029;-79
2021/06/08 20:32:16;;;;;;;6.30;2.60;;;;;;;;;;4967501;28;20030;-79
2021/06/08 20:34:41;;;;;;;9.02;3.10;;;;;;;;;;4942497;28;20500;-80
2021/06/08 20:37:06;;;;;;;8.20;3.33;;;;;;;;;;4972214;28;20031;-79
2021/06/08 20:39:33;;;;;;;8.75;3.88;;;;;;;;;;4971284;28;20048;-80
2021/06/08 20:41:58;;;;;;;9.73;3.45;;;;;;;;;;4976256;28;20579;-79
2021/06/08 20:44:24;;;;;;;10.88;3.53;;;;;;;;;;4956805;28;20035;-79
2021/06/08 20:46:52;;;;;;;8.63;3.40;;;;;;;;;;4959626;28;20058;-79
2021/06/08 20:49:18;;;;;;;8.70;3.47;;;;;;;;;;4974526;28;20369;-79
2021/06/08 20:51:47;;;;;;;7.65;3.63;;;;;;;;;;4958442;28;20011;-79
2021/06/08 20:54:12;;;;;;;14.02;3.80;;;;;;;;;;4971880;28;20019;-79
2021/06/08 20:56:37;;;;;;;7.22;3.65;;;;;;;;;;4975624;28;20113;-79
2021/06/08 20:59:02;;;;;;;9.13;3.75;;;;;;;;;;4960336;28;20435;-79
2021/06/08 21:01:28;;;;;;;8.38;3.47;;;;;;;;;;4976103;28;20467;-79
2021/06/08 21:03:55;;;;;;;10.23;4.35;;;;;;;;;;4976949;28;20528;-78
2021/06/08 21:06:20;;;;;;;9.50;3.67;;;;;;;;;;4942723;28;20033;-79
2021/06/08 21:08:46;;;;;;;8.27;4.15;;;;;;;;;;4985030;28;20046;-79
2021/06/08 21:11:11;;;;;;;10.27;4.28;;;;;;;;;;4958475;28;20022;-78
2021/06/08 21:13:40;;;;;;;8.38;4.40;;;;;;;;;;4943318;28;20042;-78
2021/06/08 21:16:05;;;;;;;9.00;4.07;;;;;;;;;;4959564;28;20117;-79
2021/06/08 21:18:31;;;;;;;9.27;4.78;;;;;;;;;;4975267;28;20527;-79
2021/06/08 21:20:56;;;;;;;8.35;4.13;;;;;;;;;;4959223;28;20670;-78
2021/06/08 21:23:22;;;;;;;12.48;4.55;;;;;;;;;;4976511;28;20080;-78
2021/06/08 21:25:47;;;;;;;11.70;4.65;;;;;;;;;;4974363;28;20034;-78
2021/06/08 21:28:13;;;;;;;9.55;4.50;;;;;;;;;;4959263;28;20063;-78
2021/06/08 21:30:44;;;;;;;10.38;5.30;;;;;;;;;;4974542;28;20019;-79
2021/06/08 21:33:10;;;;;;;9.85;4.85;;;;;;;;;;4976851;28;20101;-78
2021/06/08 21:35:35;;;;;;;13.50;4.68;;;;;;;;;;4976527;28;20113;-78
2021/06/08 21:38:01;;;;;;;10.13;5.07;;;;;;;;;;4971925;28;20019;-78
2021/06/08 21:40:27;;;;;;;10.93;5.15;;;;;;;;;;4956501;29;20049;-79
2021/06/08 21:42:52;;;;;;;9.93;4.63;;;;;;;;;;4967976;28;20038;-79
2021/06/08 21:45:17;;;;;;;10.90;5.30;;;;;;;;;;4959007;28;20015;-78
2021/06/08 21:47:42;;;;;;;11.07;5.07;;;;;;;;;;4975540;28;20090;-78
2021/06/08 21:50:09;;;;;;;9.77;5.35;;;;;;;;;;4958123;28;20058;-78
2021/06/08 21:52:34;;;;;;;10.50;5.35;;;;;;;;;;4961850;28;20022;-79
2021/06/08 21:55:04;;;;;;;8.20;4.95;;;;;;;;;;4959781;28;20123;-78
2021/06/08 21:57:30;;;;;;;10.57;5.28;;;;;;;;;;4969041;28;20050;-78
2021/06/08 21:59:55;;;;;;;12.70;5.05;;;;;;;;;;4974028;28;20015;-78
2021/06/08 22:02:21;;;;;;;11.65;5.80;;;;;;;;;;4975578;28;20033;-78
2021/06/08 22:04:51;;;;;;;10.90;5.88;;;;;;;;;;4976515;28;20447;-79
2021/06/08 22:07:17;;;;;;;13.60;7.57;;;;;;;;;;4958832;28;20022;-79
2021/06/08 22:09:42;;;;;;;13.73;7.13;;;;;;;;;;4975858;28;20019;-78
2021/06/08 22:12:09;;;;;;;17.67;7.13;;;;;;;;;;4947091;28;20019;-79
2021/06/08 22:14:34;;;;;;;17.58;7.88;;;;;;;;;;4939960;29;20063;-78
2021/06/08 22:17:00;;;;;;;12.20;7.28;;;;;;;;;;4956083;28;20121;-78
2021/06/08 22:19:25;;;;;;;12.68;6.85;;;;;;;;;;4951715;29;20449;-78
2021/06/08 22:21:51;;;;;;;14.50;7.53;;;;;;;;;;4950040;28;20092;-78
2021/06/08 22:24:16;;;;;;;16.10;7.63;;;;;;;;;;4975611;28;20441;-78
2021/06/08 22:26:41;;;;;;;14.75;7.57;;;;;;;;;;4947746;29;20043;-79
2021/06/08 22:29:07;;;;;;;14.60;7.20;;;;;;;;;;4932733;29;20031;-78
2021/06/08 22:31:32;;;;;;;17.52;7.43;;;;;;;;;;4961567;28;20057;-78
2021/06/08 22:33:57;;;;;;;14.40;7.40;;;;;;;;;;4974780;28;20042;-78
2021/06/08 22:36:23;;;;;;;14.10;7.25;;;;;;;;;;4940468;28;20026;-78
2021/06/08 22:38:48;;;;;;;13.23;7.40;;;;;;;;;;4957927;28;20031;-78
2021/06/08 22:41:13;;;;;;;11.82;7.57;;;;;;;;;;4957843;28;20159;-79
2021/06/08 22:43:38;;;;;;;16.13;7.65;;;;;;;;;;4957162;28;20082;-78
2021/06/08 22:46:04;;;;;;;14.50;6.88;;;;;;;;;;4957850;28;20038;-78
2021/06/08 22:48:29;;;;;;;14.55;7.43;;;;;;;;;;4961334;28;20031;-78
2021/06/08 22:50:54;;;;;;;15.88;7.03;;;;;;;;;;4939801;28;20031;-78
2021/06/08 22:53:20;;;;;;;17.02;8.73;;;;;;;;;;4934544;29;20027;-77
2021/06/08 22:55:46;;;;;;;15.27;7.18;;;;;;;;;;4938417;28;20051;-78
2021/06/08 22:58:11;;;;;;;14.20;7.07;;;;;;;;;;4957356;28;20346;-78
2021/06/08 23:00:36;;;;;;;12.80;6.68;;;;;;;;;;4974369;28;20026;-78
2021/06/08 23:03:02;;;;;;;16.10;7.70;;;;;;;;;;4942539;29;20027;-78
2021/06/08 23:05:27;;;;;;;21.80;8.10;;;;;;;;;;4955610;29;20038;-79
2021/06/08 23:07:53;;;;;;;18.30;7.72;;;;;;;;;;4966549;28;20070;-78
2021/06/08 23:10:18;;;;;;;14.60;6.80;;;;;;;;;;4974518;28;20027;-78
2021/06/08 23:12:44;;;;;;;18.63;7.63;;;;;;;;;;4961584;28;20038;-78
2021/06/08 23:15:10;;;;;;;16.02;7.45;;;;;;;;;;4993742;28;20356;-78
2021/06/08 23:17:36;;;;;;;16.23;7.43;;;;;;;;;;4985550;28;20023;-78
2021/06/08 23:20:03;;;;;;;16.42;7.28;;;;;;;;;;4957239;28;20042;-78
2021/06/08 23:22:28;;;;;;;17.85;7.35;;;;;;;;;;4957052;28;20054;-78
2021/06/08 23:24:54;;;;;;;11.43;6.97;;;;;;;;;;4945109;28;20058;-79
2021/06/08 23:27:20;;;;;;;17.73;6.82;;;;;;;;;;4960987;28;20034;-78
2021/06/08 23:29:45;;;;;;;15.27;6.50;;;;;;;;;;4978724;28;20110;-78
2021/06/08 23:32:10;;;;;;;19.08;6.32;;;;;;;;;;4975898;28;20045;-78
2021/06/08 23:34:36;;;;;;;10.55;6.10;;;;;;;;;;4962158;28;20054;-78
2021/06/08 23:37:02;;;;;;;15.77;6.40;;;;;;;;;;4961281;28;20023;-79
2021/06/08 23:39:27;;;;;;;13.75;6.82;;;;;;;;;;4978167;28;20033;-78
2021/06/08 23:41:54;;;;;;;14.82;6.30;;;;;;;;;;4977000;28;20023;-78
2021/06/08 23:44:19;;;;;;;9.65;6.32;;;;;;;;;;4978525;28;20094;-78
2021/06/08 23:46:44;;;;;;;13.18;5.53;;;;;;;;;;4974873;28;20011;-78
2021/06/08 23:49:12;;;;;;;16.90;6.80;;;;;;;;;;4959673;28;20449;-78
2021/06/08 23:51:37;;;;;;;8.90;5.82;;;;;;;;;;4952996;28;20015;-78
2021/06/08 23:54:03;;;;;;;12.90;5.80;;;;;;;;;;4960930;28;20413;-78
2021/06/08 23:56:28;;;;;;;13.55;6.50;;;;;;;;;;4943886;28;20055;-78
2021/06/08 23:58:55;;;;;;;12.48;7.05;;;;;;;;;;4961018;28;20030;-78
